Time;durP1;ratioP1;P1;durP2;ratioP2;P2;SDS_P1;SDS_P2;PMS_P1;PMS_P2;Temp;Humidity;BMP_temperature;BMP_pressure;BME280_temperature;BME280_humidity;BME280_pressure;Samples;Min_cycle;Max_cycle;Signal;HPM_P1;HPM_P2
2021/06/26 00:00:57;;;;;;;7.60;5.40;;;25.00;78.70;;;;;;6253258;22;20487;-87
2021/06/26 00:03:28;;;;;;;7.95;5.88;;;25.00;79.30;;;;;;6252346;22;20079;-87
2021/06/26 00:05:54;;;;;;;6.55;4.82;;;25.00;79.90;;;;;;6252864;22;20327;-87
2021/06/26 00:08:21;;;;;;;6.68;5.15;;;24.90;79.90;;;;;;6252403;22;20003;-87
2021/06/26 00:10:47;;;;;;;5.38;4.88;;;24.90;80.40;;;;;;6279311;22;20003;-87
2021/06/26 00:13:13;;;;;;;5.60;5.00;;;24.90;80.30;;;;;;6254849;22;20000;-87
2021/06/26 00:15:39;;;;;;;8.82;5.13;;;24.80;80.30;;;;;;6281325;22;20365;-87
2021/06/26 00:18:05;;;;;;;6.88;5.60;;;24.80;80.70;;;;;;6253908;22;20031;-87
2021/06/26 00:20:31;;;;;;;6.53;5.40;;;24.80;80.90;;;;;;6252174;22;20004;-87
2021/06/26 00:22:57;;;;;;;10.77;5.88;;;24.80;81.00;;;;;;6252436;22;20006;-86
2021/06/26 00:25:24;;;;;;;7.70;6.28;;;24.80;81.50;;;;;;6252126;22;20011;-87
2021/06/26 00:27:50;;;;;;;8.55;6.00;;;24.80;81.80;;;;;;6252191;22;20003;-86
2021/06/26 00:30:16;;;;;;;6.90;5.68;;;24.70;82.00;;;;;;6252585;22;20011;-87
2021/06/26 00:32:42;;;;;;;6.80;6.15;;;24.70;82.00;;;;;;6278977;22;20323;-87
2021/06/26 00:35:09;;;;;;;7.75;5.75;;;24.70;82.30;;;;;;6252412;22;20007;-87
2021/06/26 00:37:35;;;;;;;8.00;5.80;;;24.70;83.20;;;;;;6252172;22;20004;-87
2021/06/26 00:40:01;;;;;;;5.72;5.10;;;24.70;82.80;;;;;;6279231;22;20003;-87
2021/06/26 00:42:35;;;;;;;8.50;6.65;;;24.70;83.20;;;;;;6279176;22;19996;-87
2021/06/26 00:45:01;;;;;;;7.32;5.68;;;24.70;84.50;;;;;;6252396;22;20011;-86
2021/06/26 00:47:27;;;;;;;7.68;6.40;;;24.60;83.90;;;;;;6252095;22;20053;-87
2021/06/26 00:49:53;;;;;;;8.10;6.70;;;24.60;84.70;;;;;;6278881;22;19996;-87
2021/06/26 00:52:19;;;;;;;9.25;6.88;;;24.60;85.30;;;;;;6252102;22;20047;-87
2021/06/26 00:54:46;;;;;;;8.32;6.35;;;24.60;85.40;;;;;;6252028;22;20004;-87
2021/06/26 00:57:12;;;;;;;6.40;5.80;;;24.60;85.70;;;;;;6279345;22;19996;-87
2021/06/26 00:59:39;;;;;;;7.38;5.93;;;24.50;85.70;;;;;;6252556;22;20003;-87
2021/06/26 01:02:07;;;;;;;7.28;5.80;;;24.50;86.20;;;;;;6251762;22;20003;-87
2021/06/26 01:04:33;;;;;;;7.25;6.03;;;24.50;86.50;;;;;;6251913;22;20441;-87
2021/06/26 01:06:58;;;;;;;6.72;5.72;;;24.50;86.40;;;;;;6253209;22;19999;-87
2021/06/26 01:09:25;;;;;;;5.35;4.85;;;24.50;86.40;;;;;;6296137;22;20004;-86
2021/06/26 01:11:57;;;;;;;6.68;5.30;;;24.50;86.40;;;;;;6275808;22;20010;-87
2021/06/26 01:14:29;;;;;;;9.05;6.50;;;24.50;86.50;;;;;;6275793;22;20004;-86
2021/06/26 01:16:56;;;;;;;8.38;5.97;;;24.50;87.20;;;;;;6274627;22;19979;-86
2021/06/26 01:19:22;;;;;;;7.40;6.30;;;24.40;87.80;;;;;;6272665;22;20000;-86
2021/06/26 01:21:54;;;;;;;7.25;6.25;;;24.40;88.10;;;;;;6265747;22;20010;-87
2021/06/26 01:24:20;;;;;;;7.50;6.40;;;24.40;88.10;;;;;;6293157;22;19999;-86
2021/06/26 01:26:46;;;;;;;11.55;7.53;;;24.40;89.10;;;;;;6262427;22;20003;-88
2021/06/26 01:29:12;;;;;;;7.40;6.40;;;24.30;89.50;;;;;;6254559;22;20426;-87
2021/06/26 01:31:38;;;;;;;7.60;6.55;;;24.30;89.70;;;;;;6253509;22;19996;-87
2021/06/26 01:34:04;;;;;;;8.23;6.25;;;24.20;89.60;;;;;;6252035;22;20023;-87
2021/06/26 01:36:30;;;;;;;8.15;7.35;;;24.20;89.60;;;;;;6278880;22;20006;-87
2021/06/26 01:38:58;;;;;;;7.88;7.00;;;24.20;90.10;;;;;;6251899;22;20036;-87
2021/06/26 01:41:28;;;;;;;8.82;7.75;;;24.10;90.30;;;;;;6252418;22;20031;-87
2021/06/26 01:43:53;;;;;;;15.93;9.48;;;24.10;90.60;;;;;;6279307;22;20004;-86
2021/06/26 01:46:19;;;;;;;12.23;9.30;;;24.10;91.10;;;;;;6278621;22;19999;-86
2021/06/26 01:48:45;;;;;;;8.85;8.02;;;24.00;91.10;;;;;;6278450;22;19992;-87
2021/06/26 01:51:11;;;;;;;8.10;7.30;;;23.90;90.90;;;;;;6278986;22;20027;-87
2021/06/26 01:53:36;;;;;;;10.75;8.43;;;23.80;90.60;;;;;;6251648;22;19999;-86
2021/06/26 01:56:03;;;;;;;10.05;8.23;;;23.80;90.50;;;;;;6281184;22;20415;-87
2021/06/26 01:58:28;;;;;;;8.20;7.28;;;23.70;90.50;;;;;;6258606;22;20007;-87
2021/06/26 02:00:54;;;;;;;7.60;6.80;;;23.60;90.30;;;;;;6257191;22;20003;-87
2021/06/26 02:03:20;;;;;;;14.02;8.65;;;23.60;90.20;;;;;;6256121;22;20438;-87
2021/06/26 02:05:46;;;;;;;10.48;9.48;;;23.50;90.20;;;;;;6252418;22;20436;-87
2021/06/26 02:08:11;;;;;;;10.88;9.55;;;23.50;90.30;;;;;;6252848;22;20003;-86
2021/06/26 02:10:37;;;;;;;14.68;10.02;;;23.40;90.40;;;;;;6252223;22;20366;-87
2021/06/26 02:13:03;;;;;;;10.50;8.48;;;23.40;90.40;;;;;;6251723;22;20007;-86
2021/06/26 02:15:29;;;;;;;9.10;8.00;;;23.30;90.30;;;;;;6251736;22;20052;-87
2021/06/26 02:17:55;;;;;;;10.25;8.60;;;23.30;90.30;;;;;;6252335;22;20004;-87
2021/06/26 02:20:21;;;;;;;8.80;7.90;;;23.40;90.30;;;;;;6251334;22;20057;-86
2021/06/26 02:22:47;;;;;;;8.73;7.53;;;23.40;90.20;;;;;;6252128;22;20010;-87
2021/06/26 02:25:15;;;;;;;8.32;7.13;;;23.40;90.20;;;;;;6251985;22;20082;-87
2021/06/26 02:27:41;;;;;;;8.05;7.25;;;23.50;90.20;;;;;;6251720;22;20022;-87
2021/06/26 02:30:09;;;;;;;10.13;8.52;;;23.50;90.10;;;;;;6250980;22;20035;-87
2021/06/26 02:32:34;;;;;;;8.90;7.90;;;23.60;90.10;;;;;;6250050;22;20006;-86
2021/06/26 02:35:00;;;;;;;7.72;6.93;;;23.60;90.10;;;;;;6251350;22;20094;-87
2021/06/26 02:37:26;;;;;;;7.65;6.85;;;23.60;90.00;;;;;;6251233;22;20090;-87
2021/06/26 02:39:52;;;;;;;8.15;7.28;;;23.70;90.00;;;;;;6251122;22;20383;-87
2021/06/26 02:42:18;;;;;;;9.07;8.15;;;23.70;90.10;;;;;;6251427;22;19996;-87
2021/06/26 02:44:44;;;;;;;8.52;7.65;;;23.70;90.10;;;;;;6251383;22;20004;-86
2021/06/26 02:47:10;;;;;;;9.93;8.77;;;23.80;90.20;;;;;;6279421;22;20023;-87
2021/06/26 02:49:36;;;;;;;12.38;8.35;;;23.80;90.30;;;;;;6253604;22;20042;-87
2021/06/26 02:52:03;;;;;;;8.13;7.28;;;23.80;90.20;;;;;;6254793;22;19995;-86
2021/06/26 02:54:28;;;;;;;9.88;8.23;;;23.90;90.10;;;;;;6255023;22;20008;-87
2021/06/26 02:56:54;;;;;;;11.63;8.25;;;23.90;90.10;;;;;;6252128;22;20000;-87
2021/06/26 02:59:20;;;;;;;11.35;7.63;;;24.00;90.10;;;;;;6278794;22;20019;-86
2021/06/26 03:01:45;;;;;;;8.27;7.35;;;24.00;89.60;;;;;;6251476;22;20008;-86
2021/06/26 03:04:11;;;;;;;7.60;6.80;;;24.10;89.20;;;;;;6278011;22;19995;-87
2021/06/26 03:06:36;;;;;;;9.25;7.38;;;24.10;88.90;;;;;;6251294;22;20008;-86
2021/06/26 03:09:02;;;;;;;8.25;6.78;;;24.10;88.30;;;;;;6251627;22;20000;-87
2021/06/26 03:11:28;;;;;;;7.13;6.43;;;24.20;87.80;;;;;;6261164;22;19996;-86
2021/06/26 03:13:54;;;;;;;10.45;7.13;;;24.20;87.50;;;;;;6269750;22;20004;-87
2021/06/26 03:16:20;;;;;;;8.50;6.68;;;24.30;87.30;;;;;;6270670;22;20000;-85
2021/06/26 03:18:45;;;;;;;11.07;7.85;;;24.30;87.10;;;;;;6270606;22;20031;-86
2021/06/26 03:21:12;;;;;;;9.90;7.53;;;24.40;86.80;;;;;;6269479;22;20026;-86
2021/06/26 03:23:38;;;;;;;6.47;5.88;;;24.40;86.50;;;;;;6261819;22;20069;-86
2021/06/26 03:26:05;;;;;;;6.43;5.57;;;24.50;86.20;;;;;;6251215;22;20090;-86
2021/06/26 03:28:35;;;;;;;7.75;5.70;;;24.60;85.80;;;;;;6251223;22;20050;-86
2021/06/26 03:31:01;;;;;;;8.35;6.82;;;24.60;86.00;;;;;;6278273;22;19996;-86
2021/06/26 03:33:27;;;;;;;7.30;6.60;;;24.70;84.90;;;;;;6263953;22;20085;-86
2021/06/26 03:35:53;;;;;;;9.23;6.80;;;24.80;84.70;;;;;;6253887;22;20490;-86
2021/06/26 03:38:19;;;;;;;8.90;7.05;;;24.90;84.40;;;;;;6253134;22;20011;-85
2021/06/26 03:40:49;;;;;;;8.38;7.47;;;25.00;83.70;;;;;;6279335;22;20147;-86
2021/06/26 03:43:15;;;;;;;7.72;6.93;;;25.00;83.00;;;;;;6251848;22;20004;-86
2021/06/26 03:45:41;;;;;;;9.40;7.38;;;25.00;82.60;;;;;;6251705;22;20008;-86
2021/06/26 03:48:07;;;;;;;7.47;6.20;;;25.10;82.60;;;;;;6252373;22;20419;-87
2021/06/26 03:50:34;;;;;;;9.52;7.53;;;25.10;82.60;;;;;;6253613;22;19999;-87
2021/06/26 03:53:00;;;;;;;9.00;8.10;;;25.20;82.40;;;;;;6251830;22;20371;-87
2021/06/26 03:55:25;;;;;;;9.93;8.35;;;25.30;82.00;;;;;;6251959;22;20074;-87
2021/06/26 03:57:51;;;;;;;10.82;8.02;;;25.20;81.70;;;;;;6278009;22;20319;-86
2021/06/26 04:00:17;;;;;;;8.48;7.68;;;25.30;81.80;;;;;;6277598;22;20071;-87
2021/06/26 04:02:43;;;;;;;8.57;7.75;;;25.30;81.90;;;;;;6251232;22;20000;-87
2021/06/26 04:05:09;;;;;;;9.07;8.18;;;25.30;81.80;;;;;;6251288;22;20373;-87
2021/06/26 04:07:34;;;;;;;9.32;8.30;;;25.40;81.40;;;;;;6251713;22;19996;-86
2021/06/26 04:10:00;;;;;;;9.05;8.15;;;25.40;81.00;;;;;;6251470;22;20010;-86
2021/06/26 04:12:26;;;;;;;11.55;8.48;;;25.40;81.00;;;;;;6251144;22;20011;-87
2021/06/26 04:14:51;;;;;;;13.27;8.75;;;25.50;80.80;;;;;;6251582;22;20014;-87
2021/06/26 04:17:17;;;;;;;9.98;7.88;;;25.50;80.10;;;;;;6280222;22;19999;-87
2021/06/26 04:19:43;;;;;;;8.68;7.82;;;25.50;80.00;;;;;;6251361;22;20057;-87
2021/06/26 04:22:08;;;;;;;7.45;6.75;;;25.50;80.00;;;;;;6251700;22;19996;-86
2021/06/26 04:24:34;;;;;;;9.75;8.75;;;25.60;80.20;;;;;;6252232;22;20011;-86
2021/06/26 04:27:00;;;;;;;9.98;8.35;;;25.60;79.70;;;;;;6253772;22;20010;-87
2021/06/26 04:29:25;;;;;;;9.05;8.15;;;25.60;79.60;;;;;;6252754;22;20003;-87
2021/06/26 04:31:51;;;;;;;9.57;7.53;;;25.70;79.40;;;;;;6253234;22;20386;-87
2021/06/26 04:34:17;;;;;;;8.98;8.07;;;25.70;79.30;;;;;;6252295;22;20020;-86
2021/06/26 04:36:44;;;;;;;9.05;8.07;;;25.80;79.00;;;;;;6280386;22;20010;-87
2021/06/26 04:39:10;;;;;;;12.25;8.82;;;25.90;78.60;;;;;;6253391;22;20000;-87
2021/06/26 04:41:37;;;;;;;9.30;8.30;;;25.90;78.10;;;;;;6252545;22;20323;-87
2021/06/26 04:44:04;;;;;;;8.30;7.40;;;26.00;77.90;;;;;;6252936;22;20058;-87
2021/06/26 04:46:30;;;;;;;8.25;7.35;;;26.00;77.90;;;;;;6252792;22;19996;-87
2021/06/26 04:48:56;;;;;;;8.60;7.70;;;26.00;77.70;;;;;;6252797;22;20004;-87
2021/06/26 04:51:22;;;;;;;9.90;8.10;;;26.10;77.40;;;;;;6252224;22;20027;-87
2021/06/26 04:53:48;;;;;;;9.40;8.50;;;26.20;77.10;;;;;;6251980;22;20003;-87
2021/06/26 04:56:14;;;;;;;10.45;8.20;;;26.20;76.80;;;;;;6252463;22;20007;-87
2021/06/26 04:58:40;;;;;;;10.13;8.63;;;26.30;76.90;;;;;;6252527;22;20023;-86
2021/06/26 05:01:05;;;;;;;9.35;7.50;;;26.30;76.40;;;;;;6280566;22;19995;-87
2021/06/26 05:03:31;;;;;;;10.35;8.00;;;26.40;76.30;;;;;;6253088;22;20004;-87
2021/06/26 05:06:00;;;;;;;7.60;6.63;;;26.40;76.10;;;;;;6254355;22;20327;-87
2021/06/26 05:08:26;;;;;;;8.15;7.38;;;26.50;76.20;;;;;;6252134;22;20000;-87
2021/06/26 05:10:52;;;;;;;8.13;6.90;;;26.50;76.00;;;;;;6252528;22;20429;-87
2021/06/26 05:13:17;;;;;;;9.07;7.63;;;26.60;76.00;;;;;;6256753;22;20003;-87
2021/06/26 05:15:43;;;;;;;8.95;8.05;;;26.70;75.80;;;;;;6265018;22;20011;-87
2021/06/26 05:18:10;;;;;;;10.27;8.82;;;26.80;75.30;;;;;;6268230;22;19996;-88
2021/06/26 05:20:37;;;;;;;9.10;8.23;;;26.80;74.70;;;;;;6268431;22;20010;-87
2021/06/26 05:23:17;;;;;;;8.63;7.75;;;26.90;75.30;;;;;;6296476;22;19983;-87
2021/06/26 05:25:44;;;;;;;9.32;8.40;;;26.90;74.30;;;;;;6270643;22;20003;-87
2021/06/26 05:28:10;;;;;;;9.50;8.27;;;27.00;74.60;;;;;;6258766;22;20323;-87
2021/06/26 05:30:37;;;;;;;9.23;8.30;;;27.00;74.40;;;;;;6253583;22;20004;-86
2021/06/26 05:33:03;;;;;;;10.88;8.48;;;27.00;74.10;;;;;;6252413;22;20039;-86
2021/06/26 05:35:28;;;;;;;9.65;8.10;;;27.00;74.20;;;;;;6251728;22;20007;-87
2021/06/26 05:37:54;;;;;;;12.02;9.05;;;27.00;74.30;;;;;;6253250;22;20053;-87
2021/06/26 05:40:20;;;;;;;9.55;8.23;;;27.00;74.30;;;;;;6253114;22;20125;-87
2021/06/26 05:42:46;;;;;;;10.73;9.57;;;27.00;74.30;;;;;;6251808;22;20000;-87
2021/06/26 05:45:12;;;;;;;8.98;8.07;;;27.10;74.20;;;;;;6252724;22;20403;-87
2021/06/26 05:47:37;;;;;;;8.98;8.07;;;27.10;73.90;;;;;;6252603;22;20015;-86
2021/06/26 05:50:04;;;;;;;8.48;7.68;;;27.20;73.90;;;;;;6279330;22;19996;-87
2021/06/26 05:52:30;;;;;;;10.35;8.55;;;27.30;73.30;;;;;;6257781;22;20422;-87
2021/06/26 05:54:56;;;;;;;9.25;8.40;;;27.40;73.30;;;;;;6284614;22;20008;-88
2021/06/26 05:57:23;;;;;;;9.20;8.30;;;27.40;73.10;;;;;;6259188;22;20006;-87
2021/06/26 05:59:49;;;;;;;10.93;9.27;;;27.50;73.10;;;;;;6257030;22;20004;-87
2021/06/26 06:02:15;;;;;;;12.25;8.73;;;27.50;73.00;;;;;;6256994;22;19995;-87
2021/06/26 06:04:56;;;;;;;9.77;8.88;;;27.60;72.70;;;;;;6285054;22;20000;-89
2021/06/26 06:07:21;;;;;;;9.18;8.10;;;27.60;72.10;;;;;;6260542;22;20098;-88
2021/06/26 06:09:47;;;;;;;8.68;7.00;;;27.60;71.90;;;;;;6281337;22;20410;-89
2021/06/26 06:12:13;;;;;;;8.38;7.57;;;27.70;71.80;;;;;;6257368;22;20007;-88
2021/06/26 06:14:39;;;;;;;8.45;7.65;;;27.80;71.90;;;;;;6283405;22;20427;-88
2021/06/26 06:17:05;;;;;;;7.90;7.18;;;27.90;71.10;;;;;;6259087;22;20090;-87
2021/06/26 06:19:30;;;;;;;11.35;8.02;;;28.00;71.10;;;;;;6258039;22;20000;-87
2021/06/26 06:21:59;;;;;;;9.45;7.80;;;28.10;70.70;;;;;;6254281;22;20361;-87
2021/06/26 06:24:25;;;;;;;8.95;7.90;;;28.10;70.20;;;;;;6254708;22;20050;-87
2021/06/26 06:26:51;;;;;;;8.65;6.78;;;28.20;70.40;;;;;;6281101;22;20357;-86
2021/06/26 06:29:17;;;;;;;8.05;7.25;;;28.30;70.50;;;;;;6250982;22;20006;-85
2021/06/26 06:31:42;;;;;;;8.02;7.05;;;28.50;70.10;;;;;;6250671;22;20028;-85
2021/06/26 06:34:08;;;;;;;7.55;6.80;;;28.60;69.50;;;;;;6250779;22;20044;-88
2021/06/26 06:36:34;;;;;;;7.05;6.32;;;28.60;69.60;;;;;;6257828;22;20457;-89
2021/06/26 06:39:00;;;;;;;7.38;6.68;;;28.70;69.30;;;;;;6259166;22;20086;-88
2021/06/26 06:41:26;;;;;;;8.48;6.97;;;28.70;68.60;;;;;;6291976;22;20000;-88
2021/06/26 06:44:12;;;;;;;8.55;7.75;;;28.80;68.40;;;;;;6262826;22;20006;-89
2021/06/26 06:46:38;;;;;;;8.73;7.82;;;28.80;68.20;;;;;;6266203;22;20059;-89
2021/06/26 06:49:06;;;;;;;9.07;7.97;;;28.80;68.10;;;;;;6272103;22;20011;-89
2021/06/26 06:51:32;;;;;;;8.30;7.45;;;28.80;68.20;;;;;;6272015;22;20000;-89
2021/06/26 06:53:58;;;;;;;6.90;6.20;;;28.80;68.10;;;;;;6271159;22;20034;-90
2021/06/26 06:56:24;;;;;;;7.68;5.65;;;28.90;68.30;;;;;;6269200;22;20015;-89
2021/06/26 06:58:55;;;;;;;7.38;5.90;;;29.00;68.30;;;;;;6267501;22;20024;-89
2021/06/26 07:01:24;;;;;;;7.65;6.00;;;29.20;68.00;;;;;;6267399;22;20007;-90
2021/06/26 07:03:50;;;;;;;7.07;6.38;;;29.30;67.70;;;;;;6267565;22;20087;-90
2021/06/26 07:06:24;;;;;;;6.88;6.07;;;29.50;67.50;;;;;;6271047;22;20004;-90
2021/06/26 07:08:52;;;;;;;8.45;6.88;;;29.60;67.30;;;;;;6296307;22;20319;-89
2021/06/26 07:11:18;;;;;;;7.43;6.65;;;29.70;66.80;;;;;;6269818;22;19995;-89
2021/06/26 07:13:44;;;;;;;11.82;6.90;;;29.70;66.30;;;;;;6273812;22;20011;-90
2021/06/26 07:16:12;;;;;;;9.20;6.72;;;29.70;66.30;;;;;;6270621;22;20008;-89
2021/06/26 07:18:40;;;;;;;6.45;5.85;;;29.60;66.40;;;;;;6258623;22;20000;-89
2021/06/26 07:21:08;;;;;;;7.55;6.72;;;29.80;67.30;;;;;;6260941;22;20050;-89
2021/06/26 07:23:34;;;;;;;7.95;7.15;;;29.90;66.40;;;;;;6256235;22;20008;-90
2021/06/26 07:26:00;;;;;;;7.82;7.10;;;29.90;66.10;;;;;;6252423;22;20068;-90
2021/06/26 07:28:25;;;;;;;7.28;6.40;;;30.00;66.00;;;;;;6290220;22;20000;-92
2021/06/26 07:30:51;;;;;;;7.93;6.60;;;30.00;65.60;;;;;;6302722;22;19991;-90
2021/06/26 07:33:20;;;;;;;12.73;7.82;;;30.00;65.70;;;;;;6263226;22;20011;-88
2021/06/26 07:35:48;;;;;;;8.65;6.35;;;30.00;65.60;;;;;;6308939;22;20003;-93
2021/06/26 07:38:14;;;;;;;6.78;6.15;;;30.00;65.80;;;;;;6277975;22;20008;-90
2021/06/26 07:40:55;;;;;;;11.80;6.78;;;30.10;65.50;;;;;;6299490;22;20026;-88
2021/06/26 07:43:40;;;;;;;6.60;6.00;;;30.10;65.00;;;;;;6297342;22;20012;-87
2021/06/26 07:46:18;;;;;;;8.00;6.35;;;30.20;65.30;;;;;;6277843;22;20008;-88
2021/06/26 07:48:45;;;;;;;6.50;5.90;;;30.30;65.20;;;;;;6276993;22;19996;-88
2021/06/26 07:51:20;;;;;;;7.07;6.45;;;30.40;64.80;;;;;;6276199;22;20485;-87
2021/06/26 07:53:46;;;;;;;7.55;5.93;;;30.50;64.50;;;;;;6276152;22;19996;-87
2021/06/26 07:56:30;;;;;;;;;;;;;;;;;;;;;
2021/06/26 07:58:59;;;;;;;7.28;6.57;;;30.60;64.50;;;;;;6279102;22;20070;-88
2021/06/26 08:01:35;;;;;;;7.78;6.25;;;30.60;64.40;;;;;;6277039;22;20015;-88
2021/06/26 08:04:11;;;;;;;10.02;6.53;;;30.70;64.40;;;;;;6277657;22;20014;-89
2021/06/26 08:06:44;;;;;;;7.00;6.38;;;30.80;64.20;;;;;;6277574;22;20082;-87
2021/06/26 08:09:13;;;;;;;8.13;7.32;;;30.90;63.20;;;;;;6277974;22;20314;-87
2021/06/26 08:11:57;;;;;;;;;;;;;;;;;;;;;
2021/06/26 08:14:34;;;;;;;7.35;6.65;;;30.90;63.60;;;;;;6278602;22;20090;-88
2021/06/26 08:17:05;;;;;;;7.00;6.30;;;31.00;63.50;;;;;;6277305;22;20419;-88
2021/06/26 08:19:59;;;;;;;7.72;6.93;;;31.10;63.50;;;;;;6278477;22;19996;-88
2021/06/26 08:22:39;;;;;;;;;;;;;;;;;;;;;
2021/06/26 08:25:06;;;;;;;7.55;6.85;;;31.20;63.10;;;;;;6279068;22;20486;-89
2021/06/26 08:27:35;;;;;;;10.50;6.82;;;31.30;62.90;;;;;;6279491;22;20003;-88
2021/06/26 08:30:07;;;;;;;9.63;7.70;;;31.20;62.30;;;;;;6279300;22;20000;-90
2021/06/26 08:32:33;;;;;;;8.48;7.68;;;31.20;62.40;;;;;;6269774;22;19996;-90
2021/06/26 08:35:01;;;;;;;7.60;6.45;;;31.20;62.70;;;;;;6247245;23;20017;-90
2021/06/26 08:37:27;;;;;;;6.80;6.10;;;31.20;62.60;;;;;;6247165;23;20135;-89
2021/06/26 08:39:53;;;;;;;7.63;6.50;;;31.30;62.70;;;;;;6247592;22;19992;-88
2021/06/26 08:42:20;;;;;;;6.25;5.68;;;31.30;62.40;;;;;;6246929;23;20000;-89
2021/06/26 08:44:53;;;;;;;8.60;6.03;;;31.40;62.20;;;;;;6244730;23;20047;-89
2021/06/26 08:47:21;;;;;;;11.23;6.60;;;31.40;61.90;;;;;;6244193;23;19996;-89
2021/06/26 08:49:47;;;;;;;7.55;6.85;;;31.50;62.20;;;;;;6244730;22;20000;-90
2021/06/26 08:52:13;;;;;;;8.00;7.05;;;31.50;61.90;;;;;;6245519;23;20011;-90
2021/06/26 08:54:39;;;;;;;9.93;5.78;;;31.60;61.90;;;;;;6245898;22;20004;-89
2021/06/26 08:57:05;;;;;;;7.03;5.70;;;31.60;62.10;;;;;;6245738;23;20011;-90
2021/06/26 08:59:30;;;;;;;6.88;6.10;;;31.60;61.80;;;;;;6245593;23;20416;-88
2021/06/26 09:01:56;;;;;;;7.13;6.43;;;31.70;61.80;;;;;;6246210;23;20007;-90
2021/06/26 09:04:23;;;;;;;8.20;5.78;;;31.80;61.60;;;;;;6245355;23;20003;-89
2021/06/26 09:06:54;;;;;;;6.43;5.82;;;31.80;61.20;;;;;;6246160;23;20031;-89
2021/06/26 09:09:38;;;;;;;9.52;6.10;;;31.90;61.20;;;;;;6247756;23;20008;-92
2021/06/26 09:12:10;;;;;;;8.32;6.43;;;31.90;60.80;;;;;;6246157;23;20015;-91
2021/06/26 09:14:38;;;;;;;9.07;6.60;;;31.90;61.20;;;;;;6245258;23;20012;-90
2021/06/26 09:17:18;;;;;;;;;;;;;;;;;;;;;
2021/06/26 09:20:08;;;;;;;6.65;5.70;;;31.90;61.00;;;;;;6251456;23;20032;-93
2021/06/26 09:22:55;;;;;;;8.93;6.72;;;32.00;60.70;;;;;;6258383;23;19996;-92
2021/06/26 09:25:32;;;;;;;8.70;6.00;;;32.00;60.30;;;;;;6250957;23;20064;-92
2021/06/26 09:28:36;;;;;;;6.95;6.22;;;32.10;60.50;;;;;;6258268;23;20035;-95
2021/06/26 09:37:49;;;;;;;5.50;5.00;;;32.30;60.10;;;;;;6074975;23;20035;-91
2021/06/26 09:40:28;;;;;;;8.32;5.97;;;32.50;60.20;;;;;;6176356;23;20009;-92
2021/06/26 09:42:59;;;;;;;6.20;5.38;;;32.60;59.70;;;;;;6136218;23;20009;-93
2021/06/26 09:45:25;;;;;;;5.75;4.97;;;32.60;59.80;;;;;;6159904;23;20012;-87
2021/06/26 09:48:08;;;;;;;10.60;5.25;;;32.70;59.80;;;;;;6161729;23;20001;-92
2021/06/26 09:50:38;;;;;;;6.90;6.20;;;32.80;59.60;;;;;;6174523;23;20025;-91
2021/06/26 09:53:06;;;;;;;5.72;5.00;;;32.90;59.30;;;;;;6186998;23;20005;-91
2021/06/26 09:55:39;;;;;;;5.60;5.03;;;32.90;59.30;;;;;;6187342;23;20028;-87
2021/06/26 09:58:10;;;;;;;5.25;4.85;;;33.00;59.00;;;;;;6187476;23;20007;-90
2021/06/26 10:04:05;;;;;;;5.40;4.70;;;33.10;58.50;;;;;;6155533;23;20330;-91
2021/06/26 10:06:37;;;;;;;7.53;5.32;;;33.10;58.60;;;;;;6255806;22;20471;-89
2021/06/26 10:09:05;;;;;;;4.80;4.40;;;33.20;58.60;;;;;;6254983;23;19996;-87
2021/06/26 10:11:33;;;;;;;7.13;5.55;;;33.30;58.70;;;;;;6254516;22;20423;-88
2021/06/26 10:14:05;;;;;;;7.05;5.45;;;33.30;58.30;;;;;;6247708;23;20088;-89
2021/06/26 10:16:31;;;;;;;6.57;5.88;;;33.30;57.70;;;;;;6248379;23;20446;-87
2021/06/26 10:19:00;;;;;;;6.70;5.60;;;33.40;58.30;;;;;;6245363;23;20026;-87
2021/06/26 10:21:26;;;;;;;7.63;6.10;;;33.40;58.20;;;;;;6244751;23;20015;-88
2021/06/26 10:23:58;;;;;;;5.78;5.20;;;33.40;58.00;;;;;;6246677;23;20000;-89
2021/06/26 10:26:24;;;;;;;6.47;5.88;;;33.40;58.10;;;;;;6246410;23;20141;-89
2021/06/26 10:28:54;;;;;;;9.82;5.47;;;33.50;58.00;;;;;;6245822;23;20363;-89
2021/06/26 10:31:41;;;;;;;5.90;5.18;;;33.60;58.20;;;;;;6246155;23;20415;-88
2021/06/26 10:34:22;;;;;;;6.78;5.40;;;33.70;57.90;;;;;;6246079;22;20008;-89
2021/06/26 10:36:56;;;;;;;6.15;5.05;;;33.70;57.40;;;;;;6246303;22;20018;-90
2021/06/26 10:39:30;;;;;;;5.20;4.70;;;33.80;57.60;;;;;;6245605;23;20012;-89
2021/06/26 10:42:07;;;;;;;5.50;5.00;;;33.90;57.60;;;;;;6247084;22;20091;-89
2021/06/26 10:45:00;;;;;;;7.57;5.80;;;33.90;57.30;;;;;;6245966;23;20042;-89
2021/06/26 10:47:40;;;;;;;5.80;5.22;;;33.90;57.20;;;;;;6245351;23;20004;-89
2021/06/26 10:50:13;;;;;;;5.35;4.88;;;33.80;57.20;;;;;;6247089;23;20005;-88
2021/06/26 10:52:57;;;;;;;5.53;5.03;;;33.90;57.70;;;;;;6247597;22;20000;-89
2021/06/26 10:55:31;;;;;;;6.18;5.50;;;33.90;57.70;;;;;;6249564;23;20011;-90
2021/06/26 10:58:01;;;;;;;4.97;4.57;;;33.90;57.70;;;;;;6247058;23;20000;-89
2021/06/26 11:00:41;;;;;;;5.35;4.85;;;34.00;57.70;;;;;;6247859;22;20007;-90
2021/06/26 11:06:38;;;;;;;7.90;4.97;;;34.20;57.60;;;;;;6228779;22;20001;-93
2021/06/26 11:09:34;;;;;;;8.65;5.30;;;34.40;57.40;;;;;;6248476;23;20000;-94
2021/06/26 11:15:09;;;;;;;7.68;5.07;;;34.50;56.70;;;;;;6238344;22;20390;-93
2021/06/26 11:28:10;;;;;;;5.72;4.63;;;34.60;54.90;;;;;;6187902;22;20030;-92
2021/06/26 11:30:48;;;;;;;5.35;4.85;;;34.70;55.40;;;;;;6247871;23;20449;-93
2021/06/26 11:33:14;;;;;;;6.85;4.57;;;34.70;55.40;;;;;;6252285;22;20004;-92
2021/06/26 11:35:50;;;;;;;5.45;4.95;;;34.80;55.20;;;;;;6252866;23;20015;-93
2021/06/26 11:38:27;;;;;;;5.43;4.93;;;34.80;55.10;;;;;;6254772;23;20082;-91
2021/06/26 11:41:12;;;;;;;6.38;4.65;;;34.90;55.10;;;;;;6257138;22;20028;-91
2021/06/26 11:43:57;;;;;;;5.90;5.40;;;34.90;54.60;;;;;;6251189;23;20000;-91
2021/06/26 11:46:54;;;;;;;5.13;4.50;;;34.90;54.70;;;;;;6254451;23;20082;-92
2021/06/26 11:49:51;;;;;;;5.30;4.82;;;34.90;54.80;;;;;;6254863;23;19996;-92
2021/06/26 11:53:06;;;;;;;5.40;4.90;;;34.80;54.70;;;;;;6249445;23;20008;-91
2021/06/26 11:59:09;;;;;;;7.95;5.18;;;35.00;54.40;;;;;;6237682;22;20039;-91
2021/06/26 12:01:44;;;;;;;5.57;5.07;;;35.20;54.40;;;;;;6244192;23;20028;-92
2021/06/26 12:04:13;;;;;;;5.13;4.38;;;35.40;53.70;;;;;;6274168;22;19988;-93
2021/06/26 12:12:56;;;;;;;8.10;4.50;;;36.10;52.30;;;;;;6298289;22;20015;-93
2021/06/26 12:15:25;;;;;;;8.20;4.95;;;36.30;52.10;;;;;;6332131;22;20046;-91
2021/06/26 12:18:08;;;;;;;5.53;5.03;;;36.60;51.70;;;;;;6329632;22;19995;-91
2021/06/26 12:20:38;;;;;;;4.78;4.32;;;37.00;51.20;;;;;;6320024;22;20086;-92
2021/06/26 12:23:12;;;;;;;4.82;4.43;;;37.40;51.70;;;;;;6322204;22;20005;-92
2021/06/26 12:25:46;;;;;;;5.68;3.70;;;37.70;50.10;;;;;;6310709;22;20442;-92
2021/06/26 12:28:13;;;;;;;5.38;3.88;;;38.10;49.00;;;;;;6310771;22;20023;-92
2021/06/26 12:30:54;;;;;;;;;;;;;;;;;;;;;
2021/06/26 12:33:20;;;;;;;5.75;4.28;;;38.60;47.40;;;;;;6301720;22;20394;-92
2021/06/26 12:35:46;;;;;;;4.10;3.80;;;38.90;47.20;;;;;;6279361;22;20008;-93
2021/06/26 12:38:15;;;;;;;4.50;4.10;;;39.20;46.80;;;;;;6278889;22;20020;-95
2021/06/26 12:40:44;;;;;;;4.00;3.70;;;39.50;46.30;;;;;;6279255;22;20007;-92
2021/06/26 12:43:34;;;;;;;4.15;3.70;;;39.90;46.30;;;;;;6279710;22;20037;-93
2021/06/26 12:49:37;;;;;;;4.07;3.40;;;40.80;44.40;;;;;;6279930;22;20046;-94
2021/06/26 12:53:47;;;;;;;;;;;;;;;;;;;;;
2021/06/26 12:55:51;;;;;;;3.50;3.20;;;41.50;42.20;;;;;;6174871;23;20047;-93
2021/06/26 12:58:18;;;;;;;3.38;3.08;;;42.00;43.80;;;;;;6162331;23;20036;-93
2021/06/26 13:00:58;;;;;;;3.50;3.20;;;42.40;43.10;;;;;;6163320;23;20490;-94
2021/06/26 13:06:15;;;;;;;3.95;3.65;;;42.80;41.80;;;;;;6152179;23;20048;-93
2021/06/26 13:08:55;;;;;;;3.78;3.45;;;42.80;41.70;;;;;;6163118;23;20005;-92
2021/06/26 13:11:48;;;;;;;3.72;3.40;;;43.10;40.60;;;;;;6224420;22;20007;-92
2021/06/26 13:14:15;;;;;;;3.88;3.58;;;43.20;39.20;;;;;;6283308;22;20024;-90
2021/06/26 13:16:43;;;;;;;3.75;3.45;;;43.20;40.80;;;;;;6285747;22;20004;-93
2021/06/26 13:19:11;;;;;;;3.65;3.35;;;43.10;40.10;;;;;;6280639;22;20003;-92
2021/06/26 13:22:00;;;;;;;4.18;3.63;;;42.50;39.80;;;;;;6278710;22;20026;-91
2021/06/26 13:24:30;;;;;;;4.13;3.70;;;41.80;39.40;;;;;;6262610;22;20344;-94
2021/06/26 13:26:56;;;;;;;3.88;3.33;;;41.00;39.80;;;;;;6278200;22;20362;-91
2021/06/26 13:29:21;;;;;;;3.85;3.25;;;40.20;40.00;;;;;;6278935;22;20118;-90
2021/06/26 13:31:47;;;;;;;3.40;3.10;;;39.50;40.40;;;;;;6277317;22;19996;-90
2021/06/26 13:34:13;;;;;;;4.05;3.50;;;39.00;41.00;;;;;;6278930;22;20475;-90
2021/06/26 13:36:39;;;;;;;3.72;3.30;;;38.50;41.40;;;;;;6277176;22;20046;-90
2021/06/26 13:39:06;;;;;;;3.47;3.17;;;38.00;42.10;;;;;;6278733;22;20018;-90
2021/06/26 13:41:32;;;;;;;5.57;4.05;;;37.60;42.60;;;;;;6277178;22;20022;-90
2021/06/26 13:43:59;;;;;;;3.67;3.35;;;37.20;42.80;;;;;;6277383;22;20070;-90
2021/06/26 13:46:25;;;;;;;5.10;4.05;;;36.90;43.20;;;;;;6277501;22;20011;-91
2021/06/26 13:48:51;;;;;;;4.07;3.67;;;36.60;43.60;;;;;;6277571;22;20003;-90